createdAt,value
2022-12-03T00:01:43.254Z,44.30
2022-12-03T00:04:10.048Z,50.97
2022-12-03T00:06:36.661Z,47.30
2022-12-03T00:09:04.316Z,46.58
2022-12-03T00:11:31.127Z,49.72
2022-12-03T00:13:57.704Z,49.28
2022-12-03T00:16:24.325Z,46.33
2022-12-03T00:18:50.936Z,46.13
2022-12-03T00:21:17.547Z,45.03
2022-12-03T00:23:44.112Z,44.03
2022-12-03T00:26:11.019Z,52.58
2022-12-03T00:28:37.662Z,48.72
2022-12-03T00:31:04.457Z,42.07
2022-12-03T00:33:31.517Z,48.40
2022-12-03T00:35:58.108Z,48.80
2022-12-03T00:38:24.703Z,49.83
2022-12-03T00:40:51.400Z,52.80
2022-12-03T00:43:18.119Z,52.60
2022-12-03T00:45:44.683Z,53.75
2022-12-03T00:48:11.193Z,53.33
2022-12-03T00:50:37.900Z,48.25
2022-12-03T00:53:04.524Z,48.53
2022-12-03T00:55:31.095Z,52.33
2022-12-03T00:57:57.640Z,49.75
2022-12-03T01:00:25.302Z,47.80
2022-12-03T01:02:52.774Z,49.88
2022-12-03T01:05:20.603Z,45.58
2022-12-03T01:07:47.533Z,47.47
2022-12-03T01:10:14.391Z,44.40
2022-12-03T01:12:41.020Z,46.85
2022-12-03T01:15:08.363Z,42.72
2022-12-03T01:17:35.099Z,46.53
2022-12-03T01:20:02.216Z,50.23
2022-12-03T01:22:28.799Z,50.28
2022-12-03T01:24:55.725Z,44.03
2022-12-03T01:27:22.793Z,45.33
2022-12-03T01:29:49.352Z,45.80
2022-12-03T01:32:21.733Z,52.00
2022-12-03T01:34:55.874Z,45.33
2022-12-03T01:37:25.214Z,46.40
2022-12-03T01:39:52.400Z,51.55
2022-12-03T01:42:25.723Z,42.35
2022-12-03T01:44:55.086Z,51.40
2022-12-03T01:47:27.365Z,49.28
2022-12-03T01:50:19.146Z,47.45
2022-12-03T01:52:45.997Z,49.95
2022-12-03T01:55:19.744Z,52.13
2022-12-03T01:57:50.241Z,50.70
2022-12-03T02:00:23.462Z,52.78
2022-12-03T02:02:59.481Z,50.08
2022-12-03T02:05:32.106Z,52.78
2022-12-03T02:07:59.640Z,47.42
2022-12-03T02:10:30.304Z,50.80
2022-12-03T02:13:09.358Z,46.17
2022-12-03T02:15:37.979Z,45.88
2022-12-03T02:18:05.240Z,46.45
2022-12-03T02:20:36.674Z,49.47
2022-12-03T02:23:25.213Z,53.90
2022-12-03T02:25:52.039Z,55.13
2022-12-03T02:28:18.731Z,46.05
2022-12-03T02:30:45.413Z,51.17
2022-12-03T02:33:12.035Z,47.72
2022-12-03T02:35:39.304Z,48.43
2022-12-03T02:38:17.261Z,44.55
2022-12-03T02:40:45.682Z,46.35
2022-12-03T02:43:16.416Z,48.95
2022-12-03T02:45:45.537Z,47.72
2022-12-03T02:48:26.771Z,48.90
2022-12-03T02:50:55.743Z,56.95
2022-12-03T02:53:26.445Z,48.60
2022-12-03T02:55:55.772Z,42.38
2022-12-03T02:58:23.422Z,49.03
2022-12-03T03:00:52.299Z,45.50
2022-12-03T03:03:20.298Z,46.70
2022-12-03T03:05:47.933Z,49.75
2022-12-03T03:08:14.683Z,48.08
2022-12-03T03:10:42.709Z,47.97
2022-12-03T03:13:15.766Z,51.97
2022-12-03T03:15:42.711Z,54.25
2022-12-03T03:18:10.799Z,44.75
2022-12-03T03:20:38.242Z,48.70
2022-12-03T03:23:12.824Z,52.10
2022-12-03T03:25:42.559Z,46.53
2022-12-03T03:28:09.572Z,46.05
2022-12-03T03:30:38.995Z,49.53
2022-12-03T03:33:05.807Z,52.10
2022-12-03T03:35:32.693Z,52.83
2022-12-03T03:37:59.778Z,49.97
2022-12-03T03:40:26.951Z,45.28
2022-12-03T03:42:54.692Z,51.05
2022-12-03T03:45:25.678Z,51.17
2022-12-03T03:47:58.865Z,50.58
2022-12-03T03:50:27.722Z,50.37
2022-12-03T03:52:55.510Z,52.00
2022-12-03T03:55:22.626Z,49.72
2022-12-03T03:57:49.525Z,52.28
2022-12-03T04:00:17.589Z,53.85
2022-12-03T04:02:45.190Z,51.63
2022-12-03T04:05:18.004Z,47.67
2022-12-03T04:07:44.742Z,51.40
2022-12-03T04:10:38.574Z,51.28
2022-12-03T04:13:05.787Z,47.67
2022-12-03T04:15:32.611Z,51.33
2022-12-03T04:18:17.740Z,55.13
2022-12-03T04:20:44.374Z,50.47
2022-12-03T04:23:11.187Z,53.20
2022-12-03T04:25:56.436Z,54.75
2022-12-03T04:28:41.763Z,47.40
2022-12-03T04:31:27.160Z,49.08
2022-12-03T04:34:12.284Z,48.92
2022-12-03T04:36:39.189Z,61.25
2022-12-03T04:39:05.884Z,51.42
2022-12-03T04:41:32.573Z,53.87
2022-12-03T04:44:18.017Z,52.08
2022-12-03T04:46:44.605Z,52.13
2022-12-03T04:49:11.257Z,49.72
2022-12-03T04:51:37.957Z,56.17
2022-12-03T04:54:04.577Z,54.93
2022-12-03T04:56:31.245Z,60.17
2022-12-03T04:58:57.801Z,51.63
2022-12-03T05:01:24.417Z,51.88
2022-12-03T05:03:50.953Z,51.05
2022-12-03T05:06:17.569Z,52.93
2022-12-03T05:08:44.152Z,56.08
2022-12-03T05:11:10.792Z,52.20
2022-12-03T05:13:37.416Z,49.85
2022-12-03T05:16:04.399Z,46.60
2022-12-03T05:18:31.000Z,50.17
2022-12-03T05:20:57.607Z,54.33
2022-12-03T05:23:24.635Z,56.83
2022-12-03T05:25:51.292Z,54.53
2022-12-03T05:28:18.016Z,58.10
2022-12-03T05:30:44.649Z,50.77
2022-12-03T05:33:11.261Z,56.42
2022-12-03T05:35:37.829Z,54.92
2022-12-03T05:38:19.515Z,52.08
2022-12-03T05:40:46.087Z,49.65
2022-12-03T05:43:12.647Z,53.13
2022-12-03T05:45:40.865Z,54.47
2022-12-03T05:48:11.106Z,53.92
2022-12-03T05:50:39.293Z,56.25
2022-12-03T05:53:06.811Z,55.92
2022-12-03T05:55:33.454Z,52.33
2022-12-03T05:58:00.285Z,58.90
2022-12-03T06:00:29.752Z,50.53
2022-12-03T06:02:56.770Z,54.63
2022-12-03T06:05:24.601Z,57.08
2022-12-03T06:07:52.628Z,52.53
2022-12-03T06:10:22.692Z,54.40
2022-12-03T06:12:49.487Z,55.22
2022-12-03T06:15:16.234Z,55.90
2022-12-03T06:17:42.905Z,62.03
2022-12-03T06:20:13.760Z,54.03
2022-12-03T06:22:40.910Z,57.58
2022-12-03T06:25:08.159Z,53.97
2022-12-03T06:27:34.715Z,54.92
2022-12-03T06:30:01.597Z,49.75
2022-12-03T06:32:28.209Z,56.60
2022-12-03T06:34:55.229Z,51.38
2022-12-03T06:37:22.019Z,54.28
2022-12-03T06:39:48.561Z,54.67
2022-12-03T06:42:15.132Z,53.13
2022-12-03T06:44:41.741Z,55.53
2022-12-03T06:47:08.295Z,56.25
2022-12-03T06:49:35.065Z,52.80
2022-12-03T06:52:01.718Z,53.22
2022-12-03T06:54:28.375Z,56.63
2022-12-03T06:56:54.936Z,58.10
2022-12-03T06:59:21.527Z,57.03
2022-12-03T07:01:48.105Z,50.67
2022-12-03T07:04:14.657Z,55.80
2022-12-03T07:06:41.228Z,56.20
2022-12-03T07:09:07.821Z,58.07
2022-12-03T07:11:40.303Z,52.60
2022-12-03T07:14:11.770Z,61.95
2022-12-03T07:16:38.571Z,55.00
2022-12-03T07:19:06.649Z,55.85
2022-12-03T07:21:33.365Z,60.77
2022-12-03T07:23:59.926Z,56.28
2022-12-03T07:26:26.425Z,55.15
2022-12-03T07:28:53.096Z,60.28
2022-12-03T07:31:19.867Z,58.88
2022-12-03T07:33:46.511Z,57.83
2022-12-03T07:36:13.071Z,54.20
2022-12-03T07:38:39.662Z,52.85
2022-12-03T07:41:06.391Z,49.67
2022-12-03T07:43:33.021Z,55.83
2022-12-03T07:45:59.632Z,56.30
2022-12-03T07:48:26.343Z,57.22
2022-12-03T07:50:52.863Z,53.25
2022-12-03T07:53:19.582Z,55.63
2022-12-03T07:55:46.153Z,52.55
2022-12-03T07:58:12.634Z,62.40
2022-12-03T08:00:39.261Z,55.45
2022-12-03T08:03:05.900Z,56.08
2022-12-03T08:05:32.477Z,57.08
2022-12-03T08:07:59.251Z,52.10
2022-12-03T08:10:26.545Z,56.73
2022-12-03T08:12:53.732Z,59.92
2022-12-03T08:15:25.754Z,54.75
2022-12-03T08:17:58.706Z,58.88
2022-12-03T08:20:28.897Z,54.55
2022-12-03T08:22:56.963Z,60.80
2022-12-03T08:25:29.465Z,59.30
2022-12-03T08:28:02.582Z,55.55
2022-12-03T08:30:29.171Z,53.10
2022-12-03T08:32:58.033Z,56.85
2022-12-03T08:35:27.382Z,51.80
2022-12-03T08:38:12.899Z,55.90
2022-12-03T08:40:42.239Z,59.30
2022-12-03T08:43:24.609Z,58.47
2022-12-03T08:45:58.005Z,54.75
2022-12-03T08:48:26.676Z,56.63
2022-12-03T08:51:19.525Z,60.13
2022-12-03T08:54:01.883Z,58.20
2022-12-03T08:56:32.877Z,61.95
2022-12-03T08:59:38.537Z,59.22
2022-12-03T09:02:18.458Z,52.77
2022-12-03T09:04:46.268Z,53.83
2022-12-03T09:07:12.836Z,54.67
2022-12-03T09:09:39.453Z,52.80
2022-12-03T09:12:06.258Z,57.15
2022-12-03T09:14:32.827Z,59.53
2022-12-03T09:16:59.450Z,57.72
2022-12-03T09:19:27.255Z,55.03
2022-12-03T09:21:54.637Z,55.35
2022-12-03T09:24:21.719Z,60.30
2022-12-03T09:26:48.666Z,56.20
2022-12-03T09:29:15.338Z,59.20
2022-12-03T09:31:42.116Z,52.95
2022-12-03T09:34:08.801Z,52.22
2022-12-03T09:36:35.417Z,55.83
2022-12-03T09:39:01.956Z,54.27
2022-12-03T09:41:28.765Z,55.50
2022-12-03T09:44:05.134Z,56.78
2022-12-03T09:46:35.170Z,56.28
2022-12-03T09:49:03.438Z,59.45
2022-12-03T09:51:35.450Z,56.37
2022-12-03T09:54:05.314Z,57.58
2022-12-03T09:56:32.060Z,58.45
2022-12-03T09:58:59.118Z,54.72
2022-12-03T10:01:30.140Z,56.90
2022-12-03T10:03:58.482Z,58.10
2022-12-03T10:06:25.190Z,56.03
2022-12-03T10:08:54.898Z,57.30
2022-12-03T10:11:24.763Z,55.10
2022-12-03T10:13:53.378Z,60.30
2022-12-03T10:16:20.858Z,54.23
2022-12-03T10:18:51.333Z,57.38
2022-12-03T10:21:24.551Z,55.42
2022-12-03T10:24:17.200Z,51.85
2022-12-03T10:26:46.108Z,50.45
2022-12-03T10:29:36.734Z,53.40
2022-12-03T10:32:08.487Z,55.40
2022-12-03T10:34:40.331Z,56.05
2022-12-03T10:37:21.288Z,52.83
2022-12-03T10:39:58.543Z,55.20
2022-12-03T10:42:32.098Z,54.83
2022-12-03T10:45:24.985Z,52.90
2022-12-03T10:48:25.321Z,55.38
2022-12-03T10:50:54.338Z,51.10
2022-12-03T10:53:27.795Z,51.90
2022-12-03T10:55:59.576Z,45.50
2022-12-03T10:58:29.569Z,53.80
2022-12-03T11:00:58.526Z,50.88
2022-12-03T11:03:28.254Z,53.35
2022-12-03T11:05:56.662Z,53.33
2022-12-03T11:08:26.652Z,36.67
2022-12-03T11:11:03.445Z,50.70
2022-12-03T11:13:32.791Z,51.40
2022-12-03T11:16:00.857Z,51.90
2022-12-03T11:18:50.510Z,49.50
2022-12-03T11:21:17.095Z,49.87
2022-12-03T11:23:46.862Z,54.42
2022-12-03T11:26:19.598Z,51.60
2022-12-03T11:28:46.406Z,47.13
2022-12-03T11:31:38.081Z,47.70
2022-12-03T11:34:20.238Z,45.57
2022-12-03T11:37:11.784Z,44.75
2022-12-03T11:39:50.666Z,47.72
2022-12-03T11:42:26.342Z,43.88
2022-12-03T11:45:05.256Z,48.30
2022-12-03T11:47:45.584Z,48.97
2022-12-03T11:50:33.642Z,44.83
2022-12-03T11:53:14.386Z,47.53
2022-12-03T11:55:48.368Z,50.28
2022-12-03T11:58:27.407Z,49.08
2022-12-03T12:00:56.885Z,46.00
2022-12-03T12:03:41.533Z,50.55
2022-12-03T12:06:10.760Z,45.33
2022-12-03T12:08:54.240Z,40.92
2022-12-03T12:11:32.000Z,50.50
2022-12-03T12:14:05.404Z,50.60
2022-12-03T12:16:54.926Z,52.67
2022-12-03T12:19:43.185Z,46.38
2022-12-03T12:22:18.749Z,44.75
2022-12-03T12:24:51.709Z,53.92
2022-12-03T12:27:30.295Z,49.07
2022-12-03T12:30:02.338Z,52.85
2022-12-03T12:32:40.551Z,48.75
2022-12-03T12:35:19.275Z,51.03
2022-12-03T12:37:59.699Z,50.78
2022-12-03T12:40:32.348Z,53.37
2022-12-03T12:43:24.755Z,50.42
2022-12-03T12:45:56.825Z,49.17
2022-12-03T12:48:30.262Z,43.90
2022-12-03T12:51:14.704Z,50.28
2022-12-03T12:53:44.579Z,51.50
2022-12-03T12:56:20.384Z,57.17
2022-12-03T12:58:47.043Z,52.75
2022-12-03T13:01:41.187Z,47.30
2022-12-03T13:04:19.478Z,49.70
2022-12-03T13:06:48.280Z,53.97
2022-12-03T13:09:21.444Z,51.95
2022-12-03T13:11:56.928Z,52.15
2022-12-03T13:14:31.761Z,53.60
2022-12-03T13:17:00.905Z,49.03
2022-12-03T13:19:43.327Z,53.30
2022-12-03T13:22:19.535Z,56.15
2022-12-03T13:24:54.741Z,54.20
2022-12-03T13:27:29.950Z,54.20
2022-12-03T13:30:01.937Z,54.60
2022-12-03T13:32:34.825Z,54.77
2022-12-03T13:35:17.396Z,52.75
2022-12-03T13:37:44.699Z,57.40
2022-12-03T13:40:17.096Z,55.97
2022-12-03T13:42:45.948Z,60.67
2022-12-03T13:45:15.631Z,53.00
2022-12-03T13:47:50.664Z,60.42
2022-12-03T13:50:17.188Z,55.05
2022-12-03T13:52:43.835Z,54.50
2022-12-03T13:55:14.772Z,51.88
2022-12-03T13:57:41.386Z,53.87
2022-12-03T14:00:08.586Z,57.65
2022-12-03T14:02:35.248Z,54.47
2022-12-03T14:05:01.884Z,52.97
2022-12-03T14:07:28.629Z,58.50
2022-12-03T14:09:55.570Z,58.50
2022-12-03T14:12:30.673Z,52.60
2022-12-03T14:14:57.530Z,54.22
2022-12-03T14:17:24.132Z,53.92
2022-12-03T14:19:50.712Z,56.50
2022-12-03T14:22:19.159Z,52.47
2022-12-03T14:24:45.774Z,57.22
2022-12-03T14:27:12.353Z,53.00
2022-12-03T14:29:38.933Z,52.45
2022-12-03T14:32:05.675Z,56.50
2022-12-03T14:34:32.480Z,52.13
2022-12-03T14:36:59.224Z,52.60
2022-12-03T14:39:26.008Z,52.10
2022-12-03T14:42:11.255Z,52.25
2022-12-03T14:44:37.881Z,54.97
2022-12-03T14:47:05.010Z,55.73
2022-12-03T14:49:31.776Z,51.80
2022-12-03T14:51:58.332Z,55.28
2022-12-03T14:54:24.902Z,53.08
2022-12-03T14:56:51.956Z,46.22
2022-12-03T14:59:21.837Z,55.30
2022-12-03T15:01:52.676Z,53.70
2022-12-03T15:04:19.466Z,50.47
2022-12-03T15:06:46.410Z,58.78
2022-12-03T15:09:13.152Z,58.38
2022-12-03T15:11:45.798Z,58.53
2022-12-03T15:14:12.824Z,51.45
2022-12-03T15:16:39.844Z,49.42
2022-12-03T15:19:06.499Z,53.25
2022-12-03T15:21:34.841Z,52.20
2022-12-03T15:24:02.425Z,50.30
2022-12-03T15:26:29.589Z,50.42
2022-12-03T15:28:56.343Z,49.97
2022-12-03T15:31:23.074Z,50.67
2022-12-03T15:33:49.823Z,51.55
2022-12-03T15:36:16.713Z,50.23
2022-12-03T15:38:43.286Z,53.17
2022-12-03T15:41:21.773Z,53.72
2022-12-03T15:43:49.359Z,54.25
2022-12-03T15:46:16.378Z,52.30
2022-12-03T15:48:43.142Z,48.43
2022-12-03T15:51:09.957Z,49.58
2022-12-03T15:53:36.920Z,54.22
2022-12-03T15:56:03.664Z,52.80
2022-12-03T15:58:30.253Z,49.22
2022-12-03T16:00:56.906Z,52.33
2022-12-03T16:03:23.643Z,49.72
2022-12-03T16:05:50.204Z,55.20
2022-12-03T16:08:16.878Z,48.42
2022-12-03T16:10:43.560Z,47.63
2022-12-03T16:13:10.187Z,50.50
2022-12-03T16:15:36.785Z,46.92
2022-12-03T16:18:03.521Z,47.78
2022-12-03T16:20:30.226Z,46.65
2022-12-03T16:22:56.818Z,47.65
2022-12-03T16:25:23.389Z,45.37
2022-12-03T16:27:50.006Z,51.13
2022-12-03T16:30:16.810Z,46.70
2022-12-03T16:32:43.358Z,50.83
2022-12-03T16:35:09.974Z,48.53
2022-12-03T16:37:36.933Z,53.10
2022-12-03T16:40:03.993Z,48.85
2022-12-03T16:42:30.625Z,53.65
2022-12-03T16:45:02.869Z,52.67
2022-12-03T16:47:33.827Z,46.05
2022-12-03T16:50:07.783Z,55.43
2022-12-03T16:52:35.637Z,45.58
2022-12-03T16:55:02.319Z,42.15
2022-12-03T16:57:33.319Z,51.60
2022-12-03T17:00:00.413Z,49.42
2022-12-03T17:02:27.652Z,47.53
2022-12-03T17:04:54.356Z,45.63
2022-12-03T17:07:21.010Z,47.50
2022-12-03T17:09:47.605Z,49.53
2022-12-03T17:12:14.114Z,53.70
2022-12-03T17:14:40.703Z,47.50
2022-12-03T17:17:07.332Z,48.80
2022-12-03T17:19:33.896Z,52.80
2022-12-03T17:22:00.511Z,45.00
2022-12-03T17:24:27.035Z,52.55
2022-12-03T17:26:53.571Z,49.97
2022-12-03T17:29:20.135Z,49.10
2022-12-03T17:31:46.883Z,53.05
2022-12-03T17:34:13.489Z,50.72
2022-12-03T17:36:40.119Z,47.53
2022-12-03T17:39:06.776Z,54.97
2022-12-03T17:41:33.334Z,53.00
2022-12-03T17:43:59.939Z,51.33
2022-12-03T17:46:26.585Z,51.20
2022-12-03T17:48:53.256Z,48.15
2022-12-03T17:51:21.096Z,53.80
2022-12-03T17:53:47.845Z,54.72
2022-12-03T17:56:14.530Z,50.65
2022-12-03T17:58:41.135Z,51.88
2022-12-03T18:01:10.311Z,54.17
2022-12-03T18:03:37.172Z,55.80
2022-12-03T18:06:04.709Z,51.92
2022-12-03T18:08:31.266Z,54.13
2022-12-03T18:10:57.915Z,49.35
2022-12-03T18:13:24.725Z,54.03
2022-12-03T18:15:51.447Z,49.93
2022-12-03T18:18:18.121Z,49.15
2022-12-03T18:20:44.873Z,47.70
2022-12-03T18:23:12.408Z,51.15
2022-12-03T18:25:39.249Z,52.88
2022-12-03T18:28:05.860Z,49.47
2022-12-03T18:30:32.491Z,54.55
2022-12-03T18:32:59.173Z,51.60
2022-12-03T18:35:26.047Z,58.15
2022-12-03T18:37:52.955Z,53.40
2022-12-03T18:40:23.639Z,56.93
2022-12-03T18:42:50.181Z,56.05
2022-12-03T18:45:16.873Z,49.33
2022-12-03T18:47:43.773Z,53.80
2022-12-03T18:50:11.883Z,51.53
2022-12-03T18:52:38.889Z,54.20
2022-12-03T18:55:06.244Z,60.33
2022-12-03T18:57:32.807Z,56.83
2022-12-03T18:59:59.490Z,54.22
2022-12-03T19:02:54.278Z,58.80
2022-12-03T19:05:12.714Z,60.67
2022-12-03T19:07:39.427Z,55.42
2022-12-03T19:10:06.751Z,49.72
2022-12-03T19:12:33.430Z,46.70
2022-12-03T19:15:00.043Z,56.05
2022-12-03T19:17:27.331Z,53.17
2022-12-03T19:19:54.982Z,57.97
2022-12-03T19:22:22.233Z,52.78
2022-12-03T19:24:48.850Z,55.40
2022-12-03T19:27:16.484Z,53.00
2022-12-03T19:29:43.183Z,54.80
2022-12-03T19:32:09.835Z,59.45
2022-12-03T19:34:36.586Z,52.83
2022-12-03T19:37:03.144Z,60.72
2022-12-03T19:39:29.876Z,57.45
2022-12-03T19:41:56.458Z,57.07
2022-12-03T19:44:23.060Z,60.28
2022-12-03T19:46:50.049Z,56.67
2022-12-03T19:49:18.572Z,57.33
2022-12-03T19:51:45.446Z,54.53
2022-12-03T19:54:12.401Z,62.20
2022-12-03T19:56:39.171Z,62.85
2022-12-03T19:59:06.289Z,59.88
2022-12-03T20:01:35.144Z,58.72
2022-12-03T20:04:03.349Z,56.28
2022-12-03T20:06:32.631Z,61.97
2022-12-03T20:09:01.332Z,56.92
2022-12-03T20:11:30.410Z,65.82
2022-12-03T20:14:00.126Z,58.03
2022-12-03T20:16:27.878Z,56.20
2022-12-03T20:19:00.317Z,61.37
2022-12-03T20:21:29.459Z,63.42
2022-12-03T20:23:56.073Z,62.80
2022-12-03T20:26:23.821Z,60.03
2022-12-03T20:28:53.318Z,60.20
2022-12-03T20:31:22.031Z,65.33
2022-12-03T20:33:51.289Z,64.10
2022-12-03T20:36:20.667Z,63.92
2022-12-03T20:38:47.366Z,60.78
2022-12-03T20:41:16.148Z,64.65
2022-12-03T20:43:42.705Z,59.40
2022-12-03T20:46:13.057Z,60.95
2022-12-03T20:48:40.154Z,65.63
2022-12-03T20:51:08.414Z,57.90
2022-12-03T20:53:35.648Z,64.93
2022-12-03T20:56:03.837Z,62.77
2022-12-03T20:58:31.484Z,66.50
2022-12-03T21:01:15.616Z,62.65
2022-12-03T21:03:43.295Z,60.72
2022-12-03T21:06:10.298Z,62.38
2022-12-03T21:08:41.507Z,65.70
2022-12-03T21:11:14.418Z,62.17
2022-12-03T21:13:43.354Z,62.10
2022-12-03T21:16:17.955Z,67.30
2022-12-03T21:18:45.045Z,62.42
2022-12-03T21:21:13.515Z,61.20
2022-12-03T21:23:40.552Z,56.47
2022-12-03T21:26:12.854Z,60.15
2022-12-03T21:28:40.986Z,64.93
2022-12-03T21:31:11.118Z,63.17
2022-12-03T21:33:38.045Z,67.70
2022-12-03T21:36:05.683Z,62.13
2022-12-03T21:38:33.272Z,64.88
2022-12-03T21:41:00.685Z,66.45
2022-12-03T21:43:27.599Z,60.78
2022-12-03T21:45:54.235Z,68.50
2022-12-03T21:48:20.952Z,63.13
2022-12-03T21:51:01.405Z,62.47
2022-12-03T21:53:28.933Z,66.93
2022-12-03T21:55:55.592Z,59.72
2022-12-03T21:58:22.216Z,59.83
2022-12-03T22:00:48.779Z,64.57
2022-12-03T22:03:15.547Z,63.55
2022-12-03T22:05:42.326Z,68.28
2022-12-03T22:08:09.333Z,64.30
2022-12-03T22:10:36.137Z,57.73
2022-12-03T22:13:03.450Z,63.13
2022-12-03T22:15:30.026Z,69.57
2022-12-03T22:17:56.562Z,63.85
2022-12-03T22:20:23.161Z,66.05
2022-12-03T22:22:50.020Z,70.40
2022-12-03T22:25:16.653Z,75.00
2022-12-03T22:27:43.255Z,66.45
2022-12-03T22:30:10.031Z,71.88
2022-12-03T22:32:36.666Z,64.53
2022-12-03T22:35:03.439Z,67.87
2022-12-03T22:37:30.057Z,70.35
2022-12-03T22:39:57.036Z,66.55
2022-12-03T22:42:23.911Z,65.20
2022-12-03T22:44:50.488Z,62.78
2022-12-03T22:47:17.040Z,67.37
2022-12-03T22:49:43.634Z,64.55
2022-12-03T22:52:10.301Z,63.88
2022-12-03T22:54:36.937Z,65.78
2022-12-03T22:57:03.756Z,64.65
2022-12-03T22:59:30.490Z,55.60
2022-12-03T23:01:57.183Z,65.78
2022-12-03T23:04:23.768Z,67.28
2022-12-03T23:06:50.345Z,64.55
2022-12-03T23:09:16.998Z,68.53
2022-12-03T23:11:45.358Z,68.43
2022-12-03T23:14:12.528Z,68.35
2022-12-03T23:16:40.437Z,70.50
2022-12-03T23:19:07.256Z,68.18
2022-12-03T23:21:34.714Z,67.40
2022-12-03T23:24:03.401Z,68.03
2022-12-03T23:26:30.024Z,68.78
2022-12-03T23:28:56.608Z,65.95
2022-12-03T23:31:26.315Z,64.70
2022-12-03T23:33:53.948Z,69.32
2022-12-03T23:36:21.507Z,65.37
2022-12-03T23:38:48.165Z,72.78
2022-12-03T23:41:17.963Z,67.78
2022-12-03T23:43:44.768Z,69.88
2022-12-03T23:46:17.724Z,70.32
2022-12-03T23:48:45.335Z,67.80
2022-12-03T23:51:15.945Z,62.20
2022-12-03T23:53:43.064Z,67.38
2022-12-03T23:56:12.286Z,69.55
2022-12-03T23:58:38.927Z,71.47
